sensor_id;sensor_type;location;lat;lon;timestamp;P1;durP1;ratioP1;P2;durP2;ratioP2
71696;SDS011;59528;59.082;37.926;2022-12-24T00:00:04;1.10;;;0.57;;
71696;SDS011;59528;59.082;37.926;2022-12-24T00:02:32;0.80;;;0.60;;
71696;SDS011;59528;59.082;37.926;2022-12-24T00:04:58;0.60;;;0.30;;
71696;SDS011;59528;59.082;37.926;2022-12-24T00:07:23;1.73;;;0.50;;
71696;SDS011;59528;59.082;37.926;2022-12-24T00:09:49;0.60;;;0.50;;
71696;SDS011;59528;59.082;37.926;2022-12-24T00:12:14;0.73;;;0.50;;
71696;SDS011;59528;59.082;37.926;2022-12-24T00:14:41;0.90;;;0.50;;
71696;SDS011;59528;59.082;37.926;2022-12-24T00:17:06;1.00;;;0.60;;
71696;SDS011;59528;59.082;37.926;2022-12-24T00:19:32;1.07;;;0.50;;
71696;SDS011;59528;59.082;37.926;2022-12-24T00:21:57;0.90;;;0.57;;
71696;SDS011;59528;59.082;37.926;2022-12-24T00:24:23;0.73;;;0.50;;
71696;SDS011;59528;59.082;37.926;2022-12-24T00:26:48;0.87;;;0.67;;
71696;SDS011;59528;59.082;37.926;2022-12-24T00:29:14;0.50;;;0.50;;
71696;SDS011;59528;59.082;37.926;2022-12-24T00:31:39;0.90;;;0.50;;
71696;SDS011;59528;59.082;37.926;2022-12-24T00:34:05;0.67;;;0.40;;
71696;SDS011;59528;59.082;37.926;2022-12-24T00:36:30;0.60;;;0.40;;
71696;SDS011;59528;59.082;37.926;2022-12-24T00:38:56;0.60;;;0.40;;
71696;SDS011;59528;59.082;37.926;2022-12-24T00:41:21;0.47;;;0.40;;
71696;SDS011;59528;59.082;37.926;2022-12-24T00:46:16;0.60;;;0.40;;
71696;SDS011;59528;59.082;37.926;2022-12-24T00:48:41;0.80;;;0.50;;
71696;SDS011;59528;59.082;37.926;2022-12-24T00:51:08;0.67;;;0.50;;
71696;SDS011;59528;59.082;37.926;2022-12-24T00:53:33;0.70;;;0.53;;
71696;SDS011;59528;59.082;37.926;2022-12-24T00:55:59;0.73;;;0.50;;
71696;SDS011;59528;59.082;37.926;2022-12-24T00:58:24;0.80;;;0.40;;
71696;SDS011;59528;59.082;37.926;2022-12-24T01:00:50;0.50;;;0.40;;
71696;SDS011;59528;59.082;37.926;2022-12-24T01:03:15;0.57;;;0.30;;
71696;SDS011;59528;59.082;37.926;2022-12-24T01:05:41;0.47;;;0.30;;
71696;SDS011;59528;59.082;37.926;2022-12-24T01:08:09;0.63;;;0.50;;
71696;SDS011;59528;59.082;37.926;2022-12-24T01:10:35;1.07;;;0.53;;
71696;SDS011;59528;59.082;37.926;2022-12-24T01:13:01;1.30;;;0.40;;
71696;SDS011;59528;59.082;37.926;2022-12-24T01:15:27;2.03;;;0.40;;
71696;SDS011;59528;59.082;37.926;2022-12-24T01:17:52;0.83;;;0.47;;
71696;SDS011;59528;59.082;37.926;2022-12-24T01:20:18;1.30;;;0.40;;
71696;SDS011;59528;59.082;37.926;2022-12-24T01:22:44;0.50;;;0.43;;
71696;SDS011;59528;59.082;37.926;2022-12-24T01:25:10;0.87;;;0.40;;
71696;SDS011;59528;59.082;37.926;2022-12-24T01:27:36;0.47;;;0.33;;
71696;SDS011;59528;59.082;37.926;2022-12-24T01:30:02;0.73;;;0.40;;
71696;SDS011;59528;59.082;37.926;2022-12-24T01:32:28;0.50;;;0.33;;
71696;SDS011;59528;59.082;37.926;2022-12-24T01:34:54;0.40;;;0.33;;
71696;SDS011;59528;59.082;37.926;2022-12-24T01:37:20;0.50;;;0.40;;
71696;SDS011;59528;59.082;37.926;2022-12-24T01:39:45;0.40;;;0.37;;
71696;SDS011;59528;59.082;37.926;2022-12-24T01:42:23;0.30;;;0.27;;
71696;SDS011;59528;59.082;37.926;2022-12-24T01:47:51;0.77;;;0.50;;
71696;SDS011;59528;59.082;37.926;2022-12-24T01:50:17;0.40;;;0.40;;
71696;SDS011;59528;59.082;37.926;2022-12-24T01:52:43;0.30;;;0.30;;
71696;SDS011;59528;59.082;37.926;2022-12-24T01:55:09;0.40;;;0.40;;
71696;SDS011;59528;59.082;37.926;2022-12-24T01:57:42;1.00;;;0.50;;
71696;SDS011;59528;59.082;37.926;2022-12-24T02:00:09;0.67;;;0.50;;
71696;SDS011;59528;59.082;37.926;2022-12-24T02:02:36;1.10;;;0.50;;
71696;SDS011;59528;59.082;37.926;2022-12-24T02:07:31;0.40;;;0.40;;
71696;SDS011;59528;59.082;37.926;2022-12-24T02:10:00;0.83;;;0.43;;
71696;SDS011;59528;59.082;37.926;2022-12-24T02:12:26;0.80;;;0.50;;
71696;SDS011;59528;59.082;37.926;2022-12-24T02:14:53;0.77;;;0.50;;
71696;SDS011;59528;59.082;37.926;2022-12-24T02:25:19;0.70;;;0.57;;
71696;SDS011;59528;59.082;37.926;2022-12-24T02:30:21;0.60;;;0.40;;
71696;SDS011;59528;59.082;37.926;2022-12-24T02:35:41;1.70;;;0.50;;
71696;SDS011;59528;59.082;37.926;2022-12-24T02:40:45;0.60;;;0.50;;
71696;SDS011;59528;59.082;37.926;2022-12-24T02:43:14;0.67;;;0.50;;
71696;SDS011;59528;59.082;37.926;2022-12-24T02:45:41;0.70;;;0.60;;
71696;SDS011;59528;59.082;37.926;2022-12-24T02:48:08;0.63;;;0.43;;
71696;SDS011;59528;59.082;37.926;2022-12-24T02:50:34;0.50;;;0.40;;
71696;SDS011;59528;59.082;37.926;2022-12-24T02:53:00;0.53;;;0.43;;
71696;SDS011;59528;59.082;37.926;2022-12-24T02:55:31;0.50;;;0.40;;
71696;SDS011;59528;59.082;37.926;2022-12-24T03:03:16;1.57;;;0.90;;
71696;SDS011;59528;59.082;37.926;2022-12-24T03:05:55;0.80;;;0.50;;
71696;SDS011;59528;59.082;37.926;2022-12-24T03:11:10;0.77;;;0.60;;
71696;SDS011;59528;59.082;37.926;2022-12-24T03:13:37;1.00;;;0.60;;
71696;SDS011;59528;59.082;37.926;2022-12-24T03:16:08;1.33;;;0.60;;
71696;SDS011;59528;59.082;37.926;2022-12-24T03:18:36;0.60;;;0.50;;
71696;SDS011;59528;59.082;37.926;2022-12-24T03:23:31;1.40;;;0.57;;
71696;SDS011;59528;59.082;37.926;2022-12-24T03:25:57;0.87;;;0.50;;
71696;SDS011;59528;59.082;37.926;2022-12-24T03:28:24;1.10;;;0.63;;
71696;SDS011;59528;59.082;37.926;2022-12-24T03:30:51;0.80;;;0.43;;
71696;SDS011;59528;59.082;37.926;2022-12-24T03:33:17;1.00;;;0.67;;
71696;SDS011;59528;59.082;37.926;2022-12-24T03:35:42;0.90;;;0.70;;
71696;SDS011;59528;59.082;37.926;2022-12-24T03:38:08;1.20;;;0.60;;
71696;SDS011;59528;59.082;37.926;2022-12-24T03:40:34;0.77;;;0.47;;
71696;SDS011;59528;59.082;37.926;2022-12-24T03:42:59;1.00;;;0.50;;
71696;SDS011;59528;59.082;37.926;2022-12-24T03:45:25;1.47;;;0.60;;
71696;SDS011;59528;59.082;37.926;2022-12-24T03:47:50;0.60;;;0.40;;
71696;SDS011;59528;59.082;37.926;2022-12-24T03:50:16;1.07;;;0.63;;
71696;SDS011;59528;59.082;37.926;2022-12-24T03:52:41;0.47;;;0.40;;
71696;SDS011;59528;59.082;37.926;2022-12-24T03:55:08;0.60;;;0.40;;
71696;SDS011;59528;59.082;37.926;2022-12-24T03:57:33;0.77;;;0.50;;
71696;SDS011;59528;59.082;37.926;2022-12-24T03:59:59;0.67;;;0.50;;
71696;SDS011;59528;59.082;37.926;2022-12-24T04:02:25;0.80;;;0.50;;
71696;SDS011;59528;59.082;37.926;2022-12-24T04:04:50;0.93;;;0.50;;
71696;SDS011;59528;59.082;37.926;2022-12-24T04:07:18;0.93;;;0.50;;
71696;SDS011;59528;59.082;37.926;2022-12-24T04:09:44;0.80;;;0.40;;
71696;SDS011;59528;59.082;37.926;2022-12-24T04:12:10;0.50;;;0.50;;
71696;SDS011;59528;59.082;37.926;2022-12-24T04:14:35;0.83;;;0.43;;
71696;SDS011;59528;59.082;37.926;2022-12-24T04:17:01;1.40;;;0.33;;
71696;SDS011;59528;59.082;37.926;2022-12-24T04:19:26;0.67;;;0.43;;
71696;SDS011;59528;59.082;37.926;2022-12-24T04:21:52;0.90;;;0.60;;
71696;SDS011;59528;59.082;37.926;2022-12-24T04:24:18;0.70;;;0.50;;
71696;SDS011;59528;59.082;37.926;2022-12-24T04:26:44;1.10;;;0.40;;
71696;SDS011;59528;59.082;37.926;2022-12-24T04:29:09;0.67;;;0.50;;
71696;SDS011;59528;59.082;37.926;2022-12-24T04:31:35;0.70;;;0.40;;
71696;SDS011;59528;59.082;37.926;2022-12-24T04:34:01;1.33;;;0.73;;
71696;SDS011;59528;59.082;37.926;2022-12-24T04:36:26;0.60;;;0.43;;
71696;SDS011;59528;59.082;37.926;2022-12-24T04:38:51;2.00;;;0.60;;
71696;SDS011;59528;59.082;37.926;2022-12-24T04:41:21;1.03;;;0.57;;
71696;SDS011;59528;59.082;37.926;2022-12-24T04:43:47;1.00;;;0.40;;
71696;SDS011;59528;59.082;37.926;2022-12-24T04:46:13;0.70;;;0.50;;
71696;SDS011;59528;59.082;37.926;2022-12-24T04:48:39;0.60;;;0.47;;
71696;SDS011;59528;59.082;37.926;2022-12-24T04:51:06;0.93;;;0.53;;
71696;SDS011;59528;59.082;37.926;2022-12-24T04:53:32;1.10;;;0.53;;
71696;SDS011;59528;59.082;37.926;2022-12-24T04:55:57;0.70;;;0.50;;
71696;SDS011;59528;59.082;37.926;2022-12-24T04:58:23;0.77;;;0.60;;
71696;SDS011;59528;59.082;37.926;2022-12-24T05:00:49;0.70;;;0.63;;
71696;SDS011;59528;59.082;37.926;2022-12-24T05:03:14;0.60;;;0.57;;
71696;SDS011;59528;59.082;37.926;2022-12-24T05:05:40;0.80;;;0.40;;
71696;SDS011;59528;59.082;37.926;2022-12-24T05:08:05;0.60;;;0.50;;
71696;SDS011;59528;59.082;37.926;2022-12-24T05:10:31;0.97;;;0.67;;
71696;SDS011;59528;59.082;37.926;2022-12-24T05:12:56;0.63;;;0.50;;
71696;SDS011;59528;59.082;37.926;2022-12-24T05:15:25;0.63;;;0.60;;
71696;SDS011;59528;59.082;37.926;2022-12-24T05:17:50;0.70;;;0.50;;
71696;SDS011;59528;59.082;37.926;2022-12-24T05:20:15;0.77;;;0.63;;
71696;SDS011;59528;59.082;37.926;2022-12-24T05:22:41;1.33;;;0.60;;
71696;SDS011;59528;59.082;37.926;2022-12-24T05:25:26;0.70;;;0.50;;
71696;SDS011;59528;59.082;37.926;2022-12-24T05:28:14;0.97;;;0.60;;
71696;SDS011;59528;59.082;37.926;2022-12-24T05:30:40;0.77;;;0.50;;
71696;SDS011;59528;59.082;37.926;2022-12-24T05:33:05;0.67;;;0.50;;
71696;SDS011;59528;59.082;37.926;2022-12-24T05:35:31;1.03;;;0.60;;
71696;SDS011;59528;59.082;37.926;2022-12-24T05:37:57;1.07;;;0.60;;
71696;SDS011;59528;59.082;37.926;2022-12-24T05:40:23;1.40;;;0.70;;
71696;SDS011;59528;59.082;37.926;2022-12-24T05:42:48;1.20;;;0.70;;
71696;SDS011;59528;59.082;37.926;2022-12-24T05:45:17;0.80;;;0.60;;
71696;SDS011;59528;59.082;37.926;2022-12-24T05:47:42;0.83;;;0.60;;
71696;SDS011;59528;59.082;37.926;2022-12-24T05:50:08;1.73;;;0.60;;
71696;SDS011;59528;59.082;37.926;2022-12-24T05:52:34;1.07;;;0.80;;
71696;SDS011;59528;59.082;37.926;2022-12-24T05:54:59;0.90;;;0.67;;
71696;SDS011;59528;59.082;37.926;2022-12-24T05:57:25;0.90;;;0.70;;
71696;SDS011;59528;59.082;37.926;2022-12-24T05:59:50;0.80;;;0.60;;
71696;SDS011;59528;59.082;37.926;2022-12-24T06:02:16;0.93;;;0.60;;
71696;SDS011;59528;59.082;37.926;2022-12-24T06:04:41;0.70;;;0.60;;
71696;SDS011;59528;59.082;37.926;2022-12-24T06:07:07;0.93;;;0.70;;
71696;SDS011;59528;59.082;37.926;2022-12-24T06:09:32;1.53;;;0.70;;
71696;SDS011;59528;59.082;37.926;2022-12-24T06:11:58;1.10;;;0.67;;
71696;SDS011;59528;59.082;37.926;2022-12-24T06:14:23;1.17;;;0.77;;
71696;SDS011;59528;59.082;37.926;2022-12-24T06:16:49;1.30;;;0.90;;
71696;SDS011;59528;59.082;37.926;2022-12-24T06:19:15;1.10;;;0.93;;
71696;SDS011;59528;59.082;37.926;2022-12-24T06:21:40;1.67;;;0.70;;
71696;SDS011;59528;59.082;37.926;2022-12-24T06:24:06;1.20;;;0.77;;
71696;SDS011;59528;59.082;37.926;2022-12-24T06:26:31;1.00;;;0.80;;
71696;SDS011;59528;59.082;37.926;2022-12-24T06:28:57;0.80;;;0.60;;
71696;SDS011;59528;59.082;37.926;2022-12-24T06:31:23;1.83;;;0.70;;
71696;SDS011;59528;59.082;37.926;2022-12-24T06:33:48;1.23;;;0.90;;
71696;SDS011;59528;59.082;37.926;2022-12-24T06:36:21;1.00;;;0.70;;
71696;SDS011;59528;59.082;37.926;2022-12-24T06:38:49;1.47;;;1.17;;
71696;SDS011;59528;59.082;37.926;2022-12-24T06:41:16;0.90;;;0.70;;
71696;SDS011;59528;59.082;37.926;2022-12-24T06:43:45;0.70;;;0.70;;
71696;SDS011;59528;59.082;37.926;2022-12-24T06:46:11;1.73;;;1.00;;
71696;SDS011;59528;59.082;37.926;2022-12-24T06:48:37;2.33;;;1.00;;
71696;SDS011;59528;59.082;37.926;2022-12-24T06:51:02;1.67;;;1.20;;
71696;SDS011;59528;59.082;37.926;2022-12-24T06:53:28;1.37;;;0.93;;
71696;SDS011;59528;59.082;37.926;2022-12-24T06:56:01;1.33;;;0.90;;
71696;SDS011;59528;59.082;37.926;2022-12-24T06:58:27;1.40;;;1.00;;
71696;SDS011;59528;59.082;37.926;2022-12-24T07:00:52;1.30;;;0.80;;
71696;SDS011;59528;59.082;37.926;2022-12-24T07:03:18;2.07;;;1.00;;
71696;SDS011;59528;59.082;37.926;2022-12-24T07:05:43;1.80;;;1.10;;
71696;SDS011;59528;59.082;37.926;2022-12-24T07:08:09;2.33;;;1.20;;
71696;SDS011;59528;59.082;37.926;2022-12-24T07:10:37;2.17;;;1.30;;
71696;SDS011;59528;59.082;37.926;2022-12-24T07:13:03;2.97;;;1.50;;
71696;SDS011;59528;59.082;37.926;2022-12-24T07:15:28;3.03;;;1.30;;
71696;SDS011;59528;59.082;37.926;2022-12-24T07:17:54;2.00;;;1.20;;
71696;SDS011;59528;59.082;37.926;2022-12-24T07:20:19;2.07;;;1.40;;
71696;SDS011;59528;59.082;37.926;2022-12-24T07:22:45;1.93;;;1.20;;
71696;SDS011;59528;59.082;37.926;2022-12-24T07:25:10;1.40;;;1.10;;
71696;SDS011;59528;59.082;37.926;2022-12-24T07:27:37;1.50;;;1.03;;
71696;SDS011;59528;59.082;37.926;2022-12-24T07:30:03;1.40;;;0.93;;
71696;SDS011;59528;59.082;37.926;2022-12-24T07:32:28;1.67;;;0.90;;
71696;SDS011;59528;59.082;37.926;2022-12-24T07:34:54;1.27;;;0.97;;
71696;SDS011;59528;59.082;37.926;2022-12-24T07:37:19;1.87;;;0.90;;
71696;SDS011;59528;59.082;37.926;2022-12-24T07:39:45;1.40;;;0.97;;
71696;SDS011;59528;59.082;37.926;2022-12-24T07:42:10;1.87;;;1.00;;
71696;SDS011;59528;59.082;37.926;2022-12-24T07:44:36;1.03;;;0.80;;
71696;SDS011;59528;59.082;37.926;2022-12-24T07:47:01;1.73;;;0.97;;
71696;SDS011;59528;59.082;37.926;2022-12-24T07:49:27;1.73;;;1.10;;
71696;SDS011;59528;59.082;37.926;2022-12-24T07:51:53;0.80;;;0.70;;
71696;SDS011;59528;59.082;37.926;2022-12-24T07:54:18;1.07;;;0.97;;
71696;SDS011;59528;59.082;37.926;2022-12-24T07:56:46;2.63;;;1.10;;
71696;SDS011;59528;59.082;37.926;2022-12-24T07:59:12;1.17;;;0.90;;
71696;SDS011;59528;59.082;37.926;2022-12-24T08:01:38;1.43;;;0.80;;
71696;SDS011;59528;59.082;37.926;2022-12-24T08:04:03;2.23;;;1.30;;
71696;SDS011;59528;59.082;37.926;2022-12-24T08:06:29;1.47;;;0.90;;
71696;SDS011;59528;59.082;37.926;2022-12-24T08:08:55;0.90;;;0.70;;
71696;SDS011;59528;59.082;37.926;2022-12-24T08:11:20;1.50;;;1.00;;
71696;SDS011;59528;59.082;37.926;2022-12-24T08:13:49;1.20;;;0.80;;
71696;SDS011;59528;59.082;37.926;2022-12-24T08:16:14;1.37;;;0.97;;
71696;SDS011;59528;59.082;37.926;2022-12-24T08:18:40;0.70;;;0.70;;
71696;SDS011;59528;59.082;37.926;2022-12-24T08:21:06;1.27;;;1.00;;
71696;SDS011;59528;59.082;37.926;2022-12-24T08:23:33;1.00;;;0.80;;
71696;SDS011;59528;59.082;37.926;2022-12-24T08:25:58;1.20;;;0.70;;
71696;SDS011;59528;59.082;37.926;2022-12-24T08:28:24;0.83;;;0.70;;
71696;SDS011;59528;59.082;37.926;2022-12-24T08:30:49;1.50;;;1.00;;
71696;SDS011;59528;59.082;37.926;2022-12-24T08:33:15;1.53;;;1.00;;
71696;SDS011;59528;59.082;37.926;2022-12-24T08:35:45;1.33;;;0.87;;
71696;SDS011;59528;59.082;37.926;2022-12-24T08:38:11;1.33;;;1.00;;
71696;SDS011;59528;59.082;37.926;2022-12-24T08:40:36;1.50;;;0.90;;
71696;SDS011;59528;59.082;37.926;2022-12-24T08:43:02;1.87;;;0.97;;
71696;SDS011;59528;59.082;37.926;2022-12-24T08:45:28;1.33;;;0.87;;
71696;SDS011;59528;59.082;37.926;2022-12-24T08:47:53;1.63;;;1.03;;
71696;SDS011;59528;59.082;37.926;2022-12-24T08:50:19;1.17;;;0.80;;
71696;SDS011;59528;59.082;37.926;2022-12-24T08:52:44;2.00;;;0.90;;
71696;SDS011;59528;59.082;37.926;2022-12-24T08:55:10;1.00;;;0.73;;
71696;SDS011;59528;59.082;37.926;2022-12-24T08:57:36;1.20;;;0.90;;
71696;SDS011;59528;59.082;37.926;2022-12-24T09:00:02;1.43;;;1.07;;
71696;SDS011;59528;59.082;37.926;2022-12-24T09:02:29;1.90;;;1.27;;
71696;SDS011;59528;59.082;37.926;2022-12-24T09:04:54;2.30;;;1.10;;
71696;SDS011;59528;59.082;37.926;2022-12-24T09:07:20;1.50;;;1.00;;
71696;SDS011;59528;59.082;37.926;2022-12-24T09:09:45;2.47;;;1.20;;
71696;SDS011;59528;59.082;37.926;2022-12-24T09:12:11;5.30;;;1.50;;
71696;SDS011;59528;59.082;37.926;2022-12-24T09:14:36;2.67;;;1.40;;
71696;SDS011;59528;59.082;37.926;2022-12-24T09:17:02;2.07;;;1.20;;
71696;SDS011;59528;59.082;37.926;2022-12-24T09:19:28;2.10;;;1.30;;
71696;SDS011;59528;59.082;37.926;2022-12-24T09:21:53;3.47;;;1.23;;
71696;SDS011;59528;59.082;37.926;2022-12-24T09:24:19;2.13;;;1.13;;
71696;SDS011;59528;59.082;37.926;2022-12-24T09:26:44;2.57;;;1.50;;
71696;SDS011;59528;59.082;37.926;2022-12-24T09:29:13;2.27;;;1.40;;
71696;SDS011;59528;59.082;37.926;2022-12-24T09:31:39;2.17;;;1.20;;
71696;SDS011;59528;59.082;37.926;2022-12-24T09:34:04;2.70;;;1.63;;
71696;SDS011;59528;59.082;37.926;2022-12-24T09:36:30;1.80;;;1.20;;
71696;SDS011;59528;59.082;37.926;2022-12-24T09:38:55;2.07;;;1.13;;
71696;SDS011;59528;59.082;37.926;2022-12-24T09:43:48;1.73;;;1.20;;
71696;SDS011;59528;59.082;37.926;2022-12-24T09:48:47;1.17;;;0.90;;
71696;SDS011;59528;59.082;37.926;2022-12-24T09:51:23;1.83;;;1.20;;
71696;SDS011;59528;59.082;37.926;2022-12-24T09:56:20;2.07;;;1.40;;
71696;SDS011;59528;59.082;37.926;2022-12-24T09:58:47;1.80;;;1.20;;
71696;SDS011;59528;59.082;37.926;2022-12-24T10:01:14;2.50;;;1.50;;
71696;SDS011;59528;59.082;37.926;2022-12-24T10:03:40;2.57;;;1.40;;
71696;SDS011;59528;59.082;37.926;2022-12-24T10:06:11;2.20;;;1.43;;
71696;SDS011;59528;59.082;37.926;2022-12-24T10:11:32;1.63;;;1.10;;
71696;SDS011;59528;59.082;37.926;2022-12-24T10:14:22;2.50;;;1.83;;
71696;SDS011;59528;59.082;37.926;2022-12-24T10:17:09;2.30;;;1.33;;
71696;SDS011;59528;59.082;37.926;2022-12-24T10:19:40;1.90;;;1.30;;
71696;SDS011;59528;59.082;37.926;2022-12-24T10:22:16;2.73;;;1.43;;
71696;SDS011;59528;59.082;37.926;2022-12-24T10:24:53;2.70;;;1.37;;
71696;SDS011;59528;59.082;37.926;2022-12-24T10:27:23;1.70;;;1.33;;
71696;SDS011;59528;59.082;37.926;2022-12-24T10:30:01;1.77;;;1.27;;
71696;SDS011;59528;59.082;37.926;2022-12-24T10:32:30;1.87;;;1.40;;
71696;SDS011;59528;59.082;37.926;2022-12-24T10:34:58;1.53;;;1.20;;
71696;SDS011;59528;59.082;37.926;2022-12-24T10:37:25;2.07;;;1.50;;
71696;SDS011;59528;59.082;37.926;2022-12-24T10:39:53;1.50;;;1.17;;
71696;SDS011;59528;59.082;37.926;2022-12-24T10:42:20;2.53;;;1.20;;
71696;SDS011;59528;59.082;37.926;2022-12-24T10:44:49;1.77;;;1.50;;
71696;SDS011;59528;59.082;37.926;2022-12-24T10:47:14;1.53;;;1.20;;
71696;SDS011;59528;59.082;37.926;2022-12-24T10:52:11;1.40;;;1.23;;
71696;SDS011;59528;59.082;37.926;2022-12-24T10:55:03;1.43;;;1.03;;
71696;SDS011;59528;59.082;37.926;2022-12-24T10:57:24;1.70;;;1.20;;
71696;SDS011;59528;59.082;37.926;2022-12-24T10:59:53;1.97;;;1.17;;
71696;SDS011;59528;59.082;37.926;2022-12-24T11:02:37;1.93;;;1.57;;
71696;SDS011;59528;59.082;37.926;2022-12-24T11:05:09;1.63;;;1.10;;
71696;SDS011;59528;59.082;37.926;2022-12-24T11:08:04;1.50;;;1.10;;
71696;SDS011;59528;59.082;37.926;2022-12-24T11:10:30;2.13;;;1.20;;
71696;SDS011;59528;59.082;37.926;2022-12-24T11:12:59;1.50;;;1.03;;
71696;SDS011;59528;59.082;37.926;2022-12-24T11:15:26;1.93;;;1.10;;
71696;SDS011;59528;59.082;37.926;2022-12-24T11:18:03;4.40;;;1.20;;
71696;SDS011;59528;59.082;37.926;2022-12-24T11:20:30;1.83;;;1.37;;
71696;SDS011;59528;59.082;37.926;2022-12-24T11:22:59;1.30;;;0.93;;
71696;SDS011;59528;59.082;37.926;2022-12-24T11:25:29;1.70;;;1.20;;
71696;SDS011;59528;59.082;37.926;2022-12-24T11:31:15;2.37;;;1.20;;
71696;SDS011;59528;59.082;37.926;2022-12-24T11:33:50;1.40;;;1.00;;
71696;SDS011;59528;59.082;37.926;2022-12-24T11:36:20;19.20;;;11.13;;
71696;SDS011;59528;59.082;37.926;2022-12-24T11:38:53;13.20;;;7.27;;
71696;SDS011;59528;59.082;37.926;2022-12-24T11:41:20;10.17;;;6.60;;
71696;SDS011;59528;59.082;37.926;2022-12-24T11:43:47;9.77;;;5.57;;
71696;SDS011;59528;59.082;37.926;2022-12-24T11:46:17;7.60;;;4.50;;
71696;SDS011;59528;59.082;37.926;2022-12-24T11:48:44;6.37;;;3.67;;
71696;SDS011;59528;59.082;37.926;2022-12-24T11:51:23;4.93;;;3.07;;
71696;SDS011;59528;59.082;37.926;2022-12-24T11:56:34;4.63;;;2.33;;
71696;SDS011;59528;59.082;37.926;2022-12-24T11:59:08;4.27;;;2.03;;
71696;SDS011;59528;59.082;37.926;2022-12-24T12:04:10;2.07;;;1.60;;
71696;SDS011;59528;59.082;37.926;2022-12-24T12:06:39;5.30;;;3.33;;
71696;SDS011;59528;59.082;37.926;2022-12-24T12:09:18;7.50;;;5.07;;
71696;SDS011;59528;59.082;37.926;2022-12-24T12:11:46;5.63;;;3.23;;
71696;SDS011;59528;59.082;37.926;2022-12-24T12:14:36;3.87;;;2.80;;
71696;SDS011;59528;59.082;37.926;2022-12-24T12:19:38;4.27;;;2.53;;
71696;SDS011;59528;59.082;37.926;2022-12-24T12:22:09;3.57;;;2.20;;
71696;SDS011;59528;59.082;37.926;2022-12-24T12:24:38;2.53;;;1.50;;
71696;SDS011;59528;59.082;37.926;2022-12-24T12:27:12;3.07;;;1.97;;
71696;SDS011;59528;59.082;37.926;2022-12-24T12:29:44;2.37;;;1.50;;
71696;SDS011;59528;59.082;37.926;2022-12-24T12:32:15;2.03;;;1.43;;
71696;SDS011;59528;59.082;37.926;2022-12-24T12:34:55;1.90;;;1.30;;
71696;SDS011;59528;59.082;37.926;2022-12-24T12:37:28;2.50;;;1.40;;
71696;SDS011;59528;59.082;37.926;2022-12-24T12:39:55;2.30;;;1.20;;
71696;SDS011;59528;59.082;37.926;2022-12-24T12:42:26;1.53;;;1.30;;
71696;SDS011;59528;59.082;37.926;2022-12-24T12:45:02;2.40;;;1.70;;
71696;SDS011;59528;59.082;37.926;2022-12-24T12:55:26;11.70;;;7.13;;
71696;SDS011;59528;59.082;37.926;2022-12-24T12:57:57;6.73;;;4.50;;
71696;SDS011;59528;59.082;37.926;2022-12-24T13:00:25;4.67;;;3.20;;
71696;SDS011;59528;59.082;37.926;2022-12-24T13:20:41;2.30;;;1.83;;
71696;SDS011;59528;59.082;37.926;2022-12-24T13:23:19;4.30;;;2.60;;
71696;SDS011;59528;59.082;37.926;2022-12-24T13:25:46;7.00;;;3.60;;
71696;SDS011;59528;59.082;37.926;2022-12-24T13:30:48;7.40;;;4.37;;
71696;SDS011;59528;59.082;37.926;2022-12-24T13:35:59;4.30;;;2.83;;
71696;SDS011;59528;59.082;37.926;2022-12-24T13:40:51;2.93;;;2.13;;
71696;SDS011;59528;59.082;37.926;2022-12-24T13:43:16;2.63;;;1.70;;
71696;SDS011;59528;59.082;37.926;2022-12-24T13:45:43;2.43;;;1.67;;
71696;SDS011;59528;59.082;37.926;2022-12-24T13:50:39;2.40;;;1.40;;
71696;SDS011;59528;59.082;37.926;2022-12-24T13:53:21;2.00;;;1.30;;
71696;SDS011;59528;59.082;37.926;2022-12-24T13:55:59;3.00;;;1.63;;
71696;SDS011;59528;59.082;37.926;2022-12-24T13:58:27;3.57;;;2.30;;
71696;SDS011;59528;59.082;37.926;2022-12-24T14:00:54;2.13;;;1.23;;
71696;SDS011;59528;59.082;37.926;2022-12-24T14:03:22;1.80;;;1.30;;
71696;SDS011;59528;59.082;37.926;2022-12-24T14:05:49;2.27;;;1.30;;
71696;SDS011;59528;59.082;37.926;2022-12-24T14:16:03;1.20;;;0.80;;
71696;SDS011;59528;59.082;37.926;2022-12-24T14:18:30;1.10;;;0.80;;
71696;SDS011;59528;59.082;37.926;2022-12-24T14:20:58;1.07;;;0.87;;
71696;SDS011;59528;59.082;37.926;2022-12-24T14:25:50;1.90;;;0.63;;
71696;SDS011;59528;59.082;37.926;2022-12-24T14:28:16;1.10;;;0.60;;
71696;SDS011;59528;59.082;37.926;2022-12-24T14:30:44;1.10;;;0.60;;
71696;SDS011;59528;59.082;37.926;2022-12-24T14:35:54;0.77;;;0.73;;
71696;SDS011;59528;59.082;37.926;2022-12-24T14:38:20;0.70;;;0.50;;
71696;SDS011;59528;59.082;37.926;2022-12-24T14:43:22;1.00;;;0.60;;
71696;SDS011;59528;59.082;37.926;2022-12-24T14:45:58;0.83;;;0.70;;
71696;SDS011;59528;59.082;37.926;2022-12-24T14:48:29;6.10;;;1.23;;
71696;SDS011;59528;59.082;37.926;2022-12-24T14:55:53;1.93;;;1.17;;
71696;SDS011;59528;59.082;37.926;2022-12-24T14:58:31;2.53;;;1.70;;
71696;SDS011;59528;59.082;37.926;2022-12-24T15:01:00;4.23;;;2.07;;
71696;SDS011;59528;59.082;37.926;2022-12-24T15:03:29;5.77;;;2.90;;
71696;SDS011;59528;59.082;37.926;2022-12-24T15:06:00;4.90;;;2.90;;
71696;SDS011;59528;59.082;37.926;2022-12-24T15:08:35;3.83;;;2.37;;
71696;SDS011;59528;59.082;37.926;2022-12-24T15:11:03;3.83;;;1.47;;
71696;SDS011;59528;59.082;37.926;2022-12-24T15:13:36;3.30;;;1.90;;
71696;SDS011;59528;59.082;37.926;2022-12-24T15:16:13;3.93;;;1.63;;
71696;SDS011;59528;59.082;37.926;2022-12-24T15:18:42;1.80;;;1.20;;
71696;SDS011;59528;59.082;37.926;2022-12-24T15:21:13;1.93;;;1.37;;
71696;SDS011;59528;59.082;37.926;2022-12-24T15:23:44;2.27;;;1.30;;
71696;SDS011;59528;59.082;37.926;2022-12-24T15:28:39;3.17;;;1.20;;
71696;SDS011;59528;59.082;37.926;2022-12-24T15:31:27;1.97;;;1.40;;
71696;SDS011;59528;59.082;37.926;2022-12-24T15:33:52;2.03;;;1.30;;
71696;SDS011;59528;59.082;37.926;2022-12-24T15:36:28;1.77;;;1.10;;
71696;SDS011;59528;59.082;37.926;2022-12-24T15:38:56;1.40;;;1.10;;
71696;SDS011;59528;59.082;37.926;2022-12-24T15:41:27;2.50;;;1.27;;
71696;SDS011;59528;59.082;37.926;2022-12-24T15:43:58;2.10;;;1.30;;
71696;SDS011;59528;59.082;37.926;2022-12-24T15:46:25;2.80;;;1.23;;
71696;SDS011;59528;59.082;37.926;2022-12-24T15:48:51;2.63;;;1.70;;
71696;SDS011;59528;59.082;37.926;2022-12-24T15:51:36;3.97;;;1.70;;
71696;SDS011;59528;59.082;37.926;2022-12-24T15:54:05;2.90;;;1.60;;
71696;SDS011;59528;59.082;37.926;2022-12-24T15:56:35;2.67;;;1.50;;
71696;SDS011;59528;59.082;37.926;2022-12-24T15:59:11;2.37;;;1.40;;
71696;SDS011;59528;59.082;37.926;2022-12-24T16:01:37;2.53;;;1.10;;
71696;SDS011;59528;59.082;37.926;2022-12-24T16:04:09;1.80;;;1.07;;
71696;SDS011;59528;59.082;37.926;2022-12-24T16:06:52;3.00;;;1.00;;
71696;SDS011;59528;59.082;37.926;2022-12-24T16:12:19;2.27;;;0.70;;
71696;SDS011;59528;59.082;37.926;2022-12-24T16:14:56;2.97;;;0.80;;
71696;SDS011;59528;59.082;37.926;2022-12-24T16:17:23;2.70;;;0.60;;
71696;SDS011;59528;59.082;37.926;2022-12-24T16:19:50;1.23;;;0.63;;
71696;SDS011;59528;59.082;37.926;2022-12-24T16:22:18;0.90;;;0.60;;
71696;SDS011;59528;59.082;37.926;2022-12-24T16:24:57;1.57;;;0.50;;
71696;SDS011;59528;59.082;37.926;2022-12-24T16:27:23;1.87;;;0.50;;
71696;SDS011;59528;59.082;37.926;2022-12-24T16:29:49;1.53;;;0.63;;
71696;SDS011;59528;59.082;37.926;2022-12-24T16:32:28;2.50;;;0.70;;
71696;SDS011;59528;59.082;37.926;2022-12-24T16:34:55;1.93;;;0.57;;
71696;SDS011;59528;59.082;37.926;2022-12-24T16:37:28;1.17;;;0.60;;